Time;durP1;ratioP1;P1;durP2;ratioP2;P2;SDS_P1;SDS_P2;PMS_P1;PMS_P2;Temp;Humidity;BMP_temperature;BMP_pressure;BME280_temperature;BME280_humidity;BME280_pressure;Samples;Min_cycle;Max_cycle;Signal;HPM_P1;HPM_P2
2022/06/12 00:00:43;;;;;;;5.22;3.83;;;;;;;10.72;100.00;93730.19;2098416;28;20017;-83
2022/06/12 00:01:44;;;;;;;3.75;3.35;;;;;;;10.70;100.00;93730.56;2098079;28;20121;-83
2022/06/12 00:02:45;;;;;;;7.45;4.30;;;;;;;10.87;100.00;93731.50;2089919;28;20076;-82
2022/06/12 00:03:47;;;;;;;8.93;3.88;;;;;;;10.78;100.00;93729.34;2081637;28;20036;-82
2022/06/12 00:04:49;;;;;;;4.50;3.25;;;;;;;10.70;100.00;93735.91;2094412;28;20028;-85
2022/06/12 00:05:52;;;;;;;4.82;3.40;;;;;;;10.72;100.00;93732.88;2098128;28;20027;-84
2022/06/12 00:06:53;;;;;;;6.57;3.67;;;;;;;10.67;100.00;93736.75;2107041;28;20028;-84
2022/06/12 00:07:54;;;;;;;6.82;3.88;;;;;;;10.64;100.00;93731.44;2098295;28;20024;-84
2022/06/12 00:08:55;;;;;;;7.18;4.13;;;;;;;10.63;100.00;93730.69;2093883;28;20033;-83
2022/06/12 00:09:56;;;;;;;5.68;3.70;;;;;;;10.62;100.00;93728.38;2092650;28;20107;-84
2022/06/12 00:11:00;;;;;;;5.50;3.80;;;;;;;10.64;100.00;93734.09;2103705;28;20676;-82
2022/06/12 00:12:00;;;;;;;5.13;4.15;;;;;;;10.66;100.00;93732.53;2106706;28;20453;-84
2022/06/12 00:13:03;;;;;;;5.03;3.45;;;;;;;10.76;100.00;93730.91;2100287;28;20039;-82
2022/06/12 00:14:05;;;;;;;3.80;3.28;;;;;;;10.59;100.00;93732.63;2098100;28;20016;-82
2022/06/12 00:15:08;;;;;;;9.20;3.80;;;;;;;10.47;100.00;93736.56;2090233;28;20021;-84
2022/06/12 00:16:10;;;;;;;4.85;3.55;;;;;;;10.53;100.00;93729.63;2095689;28;20958;-84
2022/06/12 00:17:11;;;;;;;4.13;3.58;;;;;;;10.64;100.00;93720.75;2106846;27;20032;-82
2022/06/12 00:18:12;;;;;;;4.68;3.97;;;;;;;10.53;100.00;93726.94;2106374;28;20047;-83
2022/06/12 00:19:14;;;;;;;5.65;4.05;;;;;;;10.56;100.00;93726.16;2115042;27;20027;-83
2022/06/12 00:20:23;;;;;;;5.47;4.00;;;;;;;10.62;100.00;93731.06;2123352;27;20026;-83
2022/06/12 00:21:26;;;;;;;4.70;3.93;;;;;;;10.49;100.00;93723.59;2116069;27;20483;-83
2022/06/12 00:22:28;;;;;;;6.30;3.55;;;;;;;10.49;100.00;93731.59;2106524;28;20450;-84
2022/06/12 00:23:29;;;;;;;5.15;3.65;;;;;;;10.48;100.00;93730.06;2098299;28;20361;-83
2022/06/12 00:24:30;;;;;;;7.20;4.47;;;;;;;10.41;100.00;93724.06;2106605;28;20031;-82
2022/06/12 00:25:31;;;;;;;5.47;4.00;;;;;;;10.44;100.00;93740.03;2114935;27;20042;-84
2022/06/12 00:26:38;;;;;;;5.70;3.63;;;;;;;10.52;100.00;93730.78;2114906;28;20451;-84
2022/06/12 00:27:41;;;;;;;5.60;3.80;;;;;;;10.46;100.00;93734.31;2107254;28;20051;-83
2022/06/12 00:28:42;;;;;;;5.03;3.78;;;;;;;10.45;100.00;93728.22;2096588;28;20025;-82
2022/06/12 00:29:44;;;;;;;4.03;3.60;;;;;;;10.48;100.00;93729.31;2097855;28;20093;-83
2022/06/12 00:30:45;;;;;;;4.53;3.67;;;;;;;10.42;100.00;93731.69;2105656;28;20028;-83
2022/06/12 00:31:52;;;;;;;6.50;3.67;;;;;;;10.34;100.00;93735.59;2097979;28;20101;-83
2022/06/12 00:32:54;;;;;;;4.57;3.83;;;;;;;10.29;100.00;93738.69;2099197;28;20023;-84
2022/06/12 00:33:56;;;;;;;5.18;3.78;;;;;;;10.31;100.00;93734.44;2098060;28;20024;-82
2022/06/12 00:34:57;;;;;;;7.38;3.83;;;;;;;10.33;100.00;93742.84;2107493;28;20071;-83
2022/06/12 00:35:59;;;;;;;4.20;3.70;;;;;;;10.23;100.00;93735.69;2104748;28;20426;-83
2022/06/12 00:37:00;;;;;;;4.35;3.58;;;;;;;10.23;100.00;93734.91;2097980;28;20024;-82
2022/06/12 00:38:02;;;;;;;7.15;3.85;;;;;;;10.29;100.00;93734.09;2106316;28;20019;-82
2022/06/12 00:39:05;;;;;;;5.82;3.58;;;;;;;10.24;100.00;93734.53;2098386;28;20059;-84
2022/06/12 00:40:07;;;;;;;6.07;3.47;;;;;;;10.24;100.00;93737.22;2100802;28;20127;-83
2022/06/12 00:41:09;;;;;;;6.15;4.07;;;;;;;10.30;100.00;93732.94;2097764;28;20028;-83
2022/06/12 00:42:33;;;;;;;5.60;3.90;;;;;;;10.25;100.00;93729.94;2098218;28;20028;-83
2022/06/12 00:43:35;;;;;;;5.95;3.80;;;;;;;10.23;100.00;93730.34;2109525;28;20015;-83
2022/06/12 00:44:41;;;;;;;4.43;3.67;;;;;;;10.24;100.00;93733.75;2106518;28;20020;-83
2022/06/12 00:45:52;;;;;;;9.27;4.07;;;;;;;10.22;100.00;93728.78;2111031;28;20113;-82
2022/06/12 00:46:58;;;;;;;7.65;3.83;;;;;;;10.31;100.00;93731.78;2091094;28;20093;-82
2022/06/12 00:48:07;;;;;;;6.25;3.95;;;;;;;10.24;100.00;93725.75;2082481;28;20075;-83
2022/06/12 00:49:13;;;;;;;4.50;4.10;;;;;;;10.26;100.00;93724.19;2083629;28;20021;-82
2022/06/12 00:50:14;;;;;;;5.75;4.00;;;;;;;10.24;100.00;93721.19;2090322;28;20500;-82
2022/06/12 00:51:18;;;;;;;5.05;3.90;;;;;;;10.29;100.00;93730.69;2089457;28;20025;-83
2022/06/12 00:52:32;;;;;;;5.55;3.67;;;;;;;10.13;100.00;93727.75;2089774;28;20032;-82
2022/06/12 00:53:43;;;;;;;7.35;3.55;;;;;;;10.18;100.00;93738.00;2092221;28;20021;-83
2022/06/12 00:54:49;;;;;;;7.93;3.85;;;;;;;10.19;100.00;93729.59;2090874;28;20083;-84
2022/06/12 00:56:03;;;;;;;5.10;4.10;;;;;;;10.13;100.00;93730.44;2090710;28;20083;-82
2022/06/12 00:57:07;;;;;;;6.18;3.88;;;;;;;10.12;100.00;93727.00;2099583;28;20123;-82
2022/06/12 00:58:13;;;;;;;6.07;4.63;;;;;;;10.17;100.00;93731.16;2090479;28;20028;-83
2022/06/12 00:59:32;;;;;;;5.93;3.55;;;;;;;10.11;100.00;93735.41;2090168;28;20120;-83
2022/06/12 01:00:34;;;;;;;3.92;3.30;;;;;;;10.05;100.00;93730.50;2102685;28;20052;-82
2022/06/12 01:01:41;;;;;;;6.82;4.30;;;;;;;10.09;100.00;93728.53;2097725;28;20472;-83
2022/06/12 01:02:42;;;;;;;4.28;3.80;;;;;;;10.09;100.00;93730.47;2082762;28;20041;-84
2022/06/12 01:06:34;;;;;;;6.13;3.80;;;;;;;10.10;100.00;93721.31;2105816;28;20028;-83
2022/06/12 01:07:48;;;;;;;4.43;4.13;;;;;;;10.13;100.00;93722.41;2090545;28;20021;-83
2022/06/12 01:08:49;;;;;;;4.95;4.40;;;;;;;10.03;100.00;93724.78;2099345;28;20030;-83
2022/06/12 01:09:53;;;;;;;6.60;4.45;;;;;;;10.01;100.00;93713.00;2114501;27;20015;-84
2022/06/12 01:10:58;;;;;;;8.10;4.50;;;;;;;10.03;100.00;93716.78;2106614;28;20047;-84
2022/06/12 01:12:01;;;;;;;7.15;4.05;;;;;;;10.01;100.00;93721.78;2107125;28;20488;-83
2022/06/12 01:13:09;;;;;;;6.05;3.75;;;;;;;10.04;100.00;93718.28;2114225;27;20575;-82
2022/06/12 01:14:14;;;;;;;5.95;4.22;;;;;;;10.00;100.00;93716.81;2118600;27;20151;-83
2022/06/12 01:15:30;;;;;;;4.70;4.22;;;;;;;9.92;100.00;93713.47;2108950;28;20046;-82
2022/06/12 01:16:31;;;;;;;7.55;3.78;;;;;;;9.95;100.00;93712.66;2102741;28;20043;-83
2022/06/12 01:17:33;;;;;;;4.35;3.95;;;;;;;9.86;100.00;93719.63;2094991;28;20020;-82
2022/06/12 01:18:42;;;;;;;5.55;4.05;;;;;;;9.90;100.00;93715.78;2097757;28;20055;-82
2022/06/12 01:19:50;;;;;;;4.93;4.53;;;;;;;9.94;100.00;93707.72;2098746;28;20461;-83
2022/06/12 01:20:58;;;;;;;5.32;4.30;;;;;;;10.00;100.00;93716.81;2098449;28;20027;-82
2022/06/12 01:22:07;;;;;;;4.88;4.15;;;;;;;9.93;100.00;93706.97;2091178;28;20029;-83
2022/06/12 01:23:32;;;;;;;8.07;4.25;;;;;;;9.91;100.00;93703.16;2091586;28;20067;-83
2022/06/12 01:24:50;;;;;;;6.28;4.28;;;;;;;9.89;100.00;93716.94;2110631;27;20027;-82
2022/06/12 01:26:20;;;;;;;6.00;4.28;;;;;;;9.86;100.00;93704.38;2116702;27;20738;-84
2022/06/12 01:27:45;;;;;;;6.78;3.90;;;;;;;9.87;100.00;93702.44;2098845;28;20065;-83
2022/06/12 01:29:08;;;;;;;8.98;3.92;;;;;;;9.75;100.00;93699.13;2076994;28;20033;-83
2022/06/12 01:30:14;;;;;;;4.82;4.05;;;;;;;9.80;100.00;93673.91;2098215;28;20122;-81
2022/06/12 01:31:50;;;;;;;4.45;4.15;;;;;;;9.76;100.00;93681.94;2102596;28;20115;-83
2022/06/12 01:32:59;;;;;;;4.93;4.40;;;;;;;9.79;100.00;93675.84;2088561;28;20044;-83
2022/06/12 01:34:13;;;;;;;6.05;4.28;;;;;;;9.79;100.00;93680.41;2091382;28;20030;-82
2022/06/12 01:35:32;;;;;;;4.35;3.95;;;;;;;9.77;100.00;93688.06;2090845;28;20028;-82
2022/06/12 01:37:08;;;;;;;6.18;4.00;;;;;;;9.78;100.00;93684.22;2085884;28;20029;-83
2022/06/12 01:38:35;;;;;;;7.15;4.47;;;;;;;9.90;100.00;93675.72;2070253;28;20030;-83
2022/06/12 01:39:46;;;;;;;8.40;4.25;;;;;;;9.80;100.00;93673.91;2059707;28;20038;-82
2022/06/12 01:41:15;;;;;;;4.25;3.83;;;;;;;9.77;100.00;93672.03;2082986;28;20037;-82
2022/06/12 01:42:22;;;;;;;4.65;4.20;;;;;;;9.53;100.00;93677.22;2096860;28;20024;-83
2022/06/12 01:43:36;;;;;;;5.82;4.32;;;;;;;9.59;100.00;93672.97;2097252;28;20028;-83
2022/06/12 01:44:46;;;;;;;6.50;4.03;;;;;;;9.58;100.00;93676.03;2084523;28;20055;-83
2022/06/12 01:46:05;;;;;;;4.97;4.20;;;;;;;9.48;100.00;93672.31;2083406;28;20021;-82
2022/06/12 01:47:31;;;;;;;4.75;4.32;;;;;;;9.53;100.00;93673.78;2085730;28;20060;-83
2022/06/12 01:48:58;;;;;;;7.93;4.40;;;;;;;9.59;100.00;93672.97;2101126;28;20047;-82
2022/06/12 01:50:18;;;;;;;4.93;4.38;;;;;;;9.65;100.00;93678.63;2105767;28;20024;-82
2022/06/12 01:51:28;;;;;;;4.35;3.97;;;;;;;9.48;100.00;93677.66;2100041;28;20019;-82
2022/06/12 01:52:39;;;;;;;6.18;3.95;;;;;;;9.49;100.00;93678.41;2095761;28;20083;-83
2022/06/12 01:53:52;;;;;;;6.10;4.57;;;;;;;9.51;100.00;93674.16;2092847;28;20078;-83
2022/06/12 01:55:13;;;;;;;8.85;4.32;;;;;;;9.47;100.00;93676.09;2099072;28;20028;-83
2022/06/12 01:56:24;;;;;;;5.38;4.47;;;;;;;9.46;100.00;93668.50;2094691;28;20389;-83
2022/06/12 01:57:38;;;;;;;7.13;3.97;;;;;;;9.53;100.00;93663.88;2100157;28;20020;-84
2022/06/12 01:59:00;;;;;;;6.35;4.50;;;;;;;9.46;100.00;93668.50;2097600;28;20021;-84
2022/06/12 02:00:12;;;;;;;5.88;4.35;;;;;;;9.53;100.00;93660.44;2103995;28;20031;-83
2022/06/12 02:01:27;;;;;;;5.47;4.80;;;;;;;9.63;100.00;93666.84;2107115;28;20020;-83
2022/06/12 02:02:53;;;;;;;4.60;4.20;;;;;;;9.58;100.00;93668.03;2109697;27;20028;-83
2022/06/12 02:04:19;;;;;;;4.50;4.10;;;;;;;9.56;100.00;93668.41;2096991;28;20512;-83
2022/06/12 02:05:37;;;;;;;6.72;4.80;;;;;;;9.59;100.00;93672.97;2091959;28;20048;-85
2022/06/12 02:06:57;;;;;;;4.97;3.97;;;;;;;9.43;100.00;93679.94;2093974;28;21768;-83
2022/06/12 02:08:15;;;;;;;5.03;4.18;;;;;;;9.42;100.00;93675.78;2091683;28;20396;-84
2022/06/12 02:09:29;;;;;;;6.03;4.53;;;;;;;9.41;100.00;93672.34;2099583;28;20032;-84
2022/06/12 02:10:50;;;;;;;6.38;4.28;;;;;;;9.33;100.00;93676.22;2098973;28;20024;-84
2022/06/12 02:13:45;;;;;;;;;;;;;;;9.42;100.00;93673.88;2148670;27;20778;-84
2022/06/12 02:14:53;;;;;;;5.43;4.22;;;;;;;9.47;100.00;93664.69;2129940;27;19934;-84
2022/06/12 02:16:10;;;;;;;5.88;4.50;;;;;;;9.45;100.00;93669.66;2123320;27;20120;-83
2022/06/12 02:17:16;;;;;;;5.38;4.03;;;;;;;9.36;100.00;93670.13;2123655;27;20034;-82
2022/06/12 02:18:35;;;;;;;5.80;4.40;;;;;;;9.34;100.00;93672.41;2130470;27;20026;-84
2022/06/12 02:19:43;;;;;;;6.40;4.50;;;;;;;9.36;100.00;93677.38;2132260;27;20023;-82
2022/06/12 02:20:48;;;;;;;4.88;3.83;;;;;;;9.33;100.00;93671.66;2122410;27;20113;-83
2022/06/12 02:22:01;;;;;;;7.40;4.43;;;;;;;9.34;100.00;93672.41;2121962;27;20068;-83
2022/06/12 02:23:07;;;;;;;6.22;4.57;;;;;;;9.32;100.00;93664.06;2131493;27;20015;-84
2022/06/12 02:24:16;;;;;;;7.05;4.78;;;;;;;9.29;100.00;93672.81;2122032;27;20028;-82
2022/06/12 02:25:28;;;;;;;5.75;4.30;;;;;;;9.36;100.00;93672.03;2115002;27;20113;-83
2022/06/12 02:26:40;;;;;;;5.32;4.53;;;;;;;9.28;100.00;93669.41;2124748;27;20030;-83
2022/06/12 02:27:49;;;;;;;6.35;4.68;;;;;;;9.29;100.00;93668.25;2122953;27;20062;-83
2022/06/12 02:28:57;;;;;;;4.82;4.43;;;;;;;9.31;100.00;93670.53;2116773;27;20054;-82
2022/06/12 02:30:02;;;;;;;5.00;4.60;;;;;;;9.25;100.00;93669.44;2113818;28;20032;-83
2022/06/12 02:31:11;;;;;;;7.32;4.70;;;;;;;9.21;100.00;93668.69;2113854;27;20028;-84
2022/06/12 02:32:44;;;;;;;6.93;4.32;;;;;;;9.18;100.00;93672.91;2122497;27;20031;-84
2022/06/12 02:33:52;;;;;;;5.93;4.47;;;;;;;9.28;100.00;93666.75;2121762;27;20035;-84
2022/06/12 02:35:06;;;;;;;7.10;4.88;;;;;;;9.35;100.00;93668.59;2122230;27;20027;-83
2022/06/12 02:36:18;;;;;;;4.63;4.22;;;;;;;9.29;100.00;93668.25;2114369;28;20476;-84
2022/06/12 02:37:26;;;;;;;5.45;4.57;;;;;;;9.30;100.00;93663.66;2116165;27;20027;-85
2022/06/12 02:38:42;;;;;;;7.70;4.45;;;;;;;9.23;100.00;93666.41;2127834;27;20095;-82
2022/06/12 02:39:49;;;;;;;8.50;5.03;;;;;;;9.25;100.00;93669.44;2123233;27;20476;-86
2022/06/12 02:40:59;;;;;;;6.32;4.70;;;;;;;9.28;100.00;93665.97;2113842;27;20024;-82
2022/06/12 02:42:04;;;;;;;5.70;4.47;;;;;;;9.23;100.00;93661.81;2112476;27;20028;-83
2022/06/12 02:43:11;;;;;;;6.68;4.88;;;;;;;9.22;100.00;93667.53;2119298;28;20047;-83
2022/06/12 02:44:23;;;;;;;5.03;4.60;;;;;;;9.25;100.00;93670.19;2105878;28;20031;-83
2022/06/12 02:45:31;;;;;;;4.70;4.28;;;;;;;9.27;100.00;93669.81;2107131;28;20024;-84
2022/06/12 02:46:32;;;;;;;5.45;4.95;;;;;;;9.37;100.00;93671.63;2106138;28;20111;-84
2022/06/12 02:47:36;;;;;;;5.82;4.93;;;;;;;9.23;100.00;93669.06;2096056;28;20035;-83
2022/06/12 02:48:38;;;;;;;7.50;4.60;;;;;;;9.28;100.00;93669.41;2104758;28;20027;-84
2022/06/12 02:49:43;;;;;;;7.00;4.60;;;;;;;9.24;100.00;93673.25;2112903;27;20016;-84
2022/06/12 02:51:09;;;;;;;5.72;4.47;;;;;;;9.21;100.00;93666.03;2112609;28;20031;-84
2022/06/12 02:52:22;;;;;;;5.70;4.20;;;;;;;9.17;100.00;93668.72;2102862;28;20065;-85
2022/06/12 02:53:49;;;;;;;10.13;4.55;;;;;;;9.19;100.00;93669.09;2105625;28;20673;-83
2022/06/12 02:55:21;;;;;;;5.57;4.88;;;;;;;9.09;100.00;93664.59;2107834;28;20062;-84
2022/06/12 02:56:22;;;;;;;6.63;4.45;;;;;;;9.15;100.00;93664.94;2112765;28;20460;-83
2022/06/12 02:57:32;;;;;;;5.05;4.60;;;;;;;9.12;100.00;93674.47;2104395;28;20058;-85
2022/06/12 02:58:39;;;;;;;4.70;4.30;;;;;;;9.12;100.00;93663.81;2102564;28;20024;-84
2022/06/12 03:00:06;;;;;;;5.68;4.50;;;;;;;9.11;100.00;93666.88;2105038;28;20032;-85
2022/06/12 03:01:13;;;;;;;5.82;4.28;;;;;;;9.06;100.00;93663.47;2111475;28;20057;-84
2022/06/12 03:02:29;;;;;;;5.20;4.70;;;;;;;9.02;100.00;93659.31;2105183;28;20039;-83
2022/06/12 03:03:39;;;;;;;6.78;5.22;;;;;;;8.97;100.00;93657.06;2106214;28;20491;-84
2022/06/12 03:04:45;;;;;;;5.32;4.82;;;;;;;9.02;100.00;93661.97;2098264;28;20123;-83
2022/06/12 03:05:51;;;;;;;6.10;4.55;;;;;;;8.99;100.00;93658.19;2105599;28;20489;-83
2022/06/12 03:06:53;;;;;;;6.30;4.85;;;;;;;9.06;100.00;93660.81;2104821;28;20500;-85
2022/06/12 03:08:06;;;;;;;5.40;4.88;;;;;;;9.04;100.00;93659.66;2104266;28;20050;-83
2022/06/12 03:09:08;;;;;;;5.03;4.53;;;;;;;9.02;100.00;93667.31;2107446;28;20027;-86
2022/06/12 03:10:15;;;;;;;5.47;4.28;;;;;;;9.11;100.00;93664.97;2112890;28;20086;-85
2022/06/12 03:11:44;;;;;;;8.88;5.18;;;;;;;9.04;100.00;93665.00;2104863;28;20047;-83
2022/06/12 03:12:47;;;;;;;6.90;4.75;;;;;;;9.07;100.00;93661.56;2116638;27;20030;-83
2022/06/12 03:13:51;;;;;;;5.38;4.47;;;;;;;9.11;100.00;93664.22;2112654;28;20028;-86
2022/06/12 03:14:52;;;;;;;5.20;4.65;;;;;;;9.05;100.00;93658.53;2104587;28;20032;-84
2022/06/12 03:16:00;;;;;;;4.95;4.47;;;;;;;8.99;100.00;93663.50;2112718;28;20126;-83
2022/06/12 03:17:02;;;;;;;5.00;4.60;;;;;;;8.96;100.00;93663.56;2120963;28;20023;-84
2022/06/12 03:18:07;;;;;;;6.10;4.80;;;;;;;8.93;100.00;93667.75;2112526;28;20483;-85
2022/06/12 03:19:13;;;;;;;6.65;4.35;;;;;;;8.92;100.00;93663.56;2113064;28;20053;-85
2022/06/12 03:20:13;;;;;;;4.63;4.22;;;;;;;9.10;100.00;93657.38;2104620;28;20028;-85
2022/06/12 03:21:31;;;;;;;5.75;4.70;;;;;;;9.02;100.00;93662.75;2104050;28;20020;-84
2022/06/12 03:22:43;;;;;;;6.60;4.45;;;;;;;9.02;100.00;93657.41;2112363;28;20034;-86
2022/06/12 03:24:05;;;;;;;6.57;4.70;;;;;;;9.06;100.00;93660.81;2098884;28;20405;-84
2022/06/12 03:25:23;;;;;;;6.03;4.57;;;;;;;9.07;100.00;93659.66;2110816;27;20030;-85
2022/06/12 03:26:36;;;;;;;6.00;4.70;;;;;;;8.99;100.00;93668.09;2117504;27;20080;-83
2022/06/12 03:27:48;;;;;;;5.53;4.63;;;;;;;8.94;100.00;93658.59;2108434;28;20020;-83
2022/06/12 03:29:04;;;;;;;7.03;4.55;;;;;;;8.96;100.00;93664.31;2106574;28;20081;-82
2022/06/12 03:30:23;;;;;;;5.32;4.82;;;;;;;8.95;100.00;93662.03;2102610;28;20485;-83
2022/06/12 03:31:39;;;;;;;5.05;4.57;;;;;;;8.95;100.00;93662.03;2100896;28;20033;-83
2022/06/12 03:32:55;;;;;;;5.72;4.82;;;;;;;8.89;100.00;93663.59;2102694;28;20028;-85
2022/06/12 03:34:01;;;;;;;5.60;4.90;;;;;;;8.89;100.00;93659.03;2108843;28;20032;-86
2022/06/12 03:35:09;;;;;;;6.72;4.70;;;;;;;8.84;100.00;93662.09;2107392;28;20024;-83
2022/06/12 03:36:28;;;;;;;8.25;4.80;;;;;;;8.85;100.00;93655.63;2099169;28;20507;-83
2022/06/12 03:37:52;;;;;;;6.05;4.88;;;;;;;8.89;100.00;93661.69;2100886;28;20032;-85
2022/06/12 03:39:05;;;;;;;5.63;4.60;;;;;;;8.92;100.00;93660.91;2113380;27;20026;-86
2022/06/12 03:40:21;;;;;;;5.05;4.55;;;;;;;8.94;100.00;93663.94;2115190;28;20796;-86
2022/06/12 03:41:22;;;;;;;8.77;4.80;;;;;;;8.89;100.00;93664.34;2100472;28;20029;-85
2022/06/12 03:42:43;;;;;;;7.50;5.35;;;;;;;8.94;100.00;93661.25;2098223;28;20020;-82
2022/06/12 03:44:14;;;;;;;5.57;4.65;;;;;;;9.02;100.00;93668.06;2101215;28;20027;-85
2022/06/12 03:45:22;;;;;;;5.22;4.60;;;;;;;9.09;100.00;93667.28;2119196;27;20019;-84
2022/06/12 03:46:34;;;;;;;5.90;4.85;;;;;;;9.05;100.00;93666.53;2111328;28;20471;-83
2022/06/12 03:47:43;;;;;;;8.10;4.78;;;;;;;9.03;100.00;93668.81;2101324;28;20040;-85
2022/06/12 03:49:16;;;;;;;4.97;4.55;;;;;;;9.01;100.00;93663.91;2108064;28;20066;-84
2022/06/12 03:50:41;;;;;;;5.70;4.60;;;;;;;9.04;100.00;93670.34;2106963;28;20103;-84
2022/06/12 03:52:15;;;;;;;5.18;4.63;;;;;;;8.98;100.00;93672.66;2096655;28;20035;-84
2022/06/12 03:53:28;;;;;;;5.10;4.70;;;;;;;8.97;100.00;93668.50;2098602;28;20492;-83
2022/06/12 03:54:39;;;;;;;5.78;4.68;;;;;;;8.98;100.00;93683.34;2115458;27;20028;-82
2022/06/12 03:58:52;;;;;;;8.40;4.88;;;;;;;9.00;100.00;93670.38;2118986;27;20026;-82
2022/06/12 04:00:07;;;;;;;6.35;4.85;;;;;;;9.01;100.00;93674.56;2108006;28;20056;-84
2022/06/12 04:01:08;;;;;;;9.93;8.93;;;;;;;9.08;100.00;93679.81;2108313;28;20094;-83
2022/06/12 04:02:15;;;;;;;10.75;9.65;;;;;;;9.05;100.00;93680.63;2106417;28;20028;-84
2022/06/12 04:03:23;;;;;;;13.95;11.02;;;;;;;9.06;100.00;93676.06;2091620;28;20466;-83
2022/06/12 04:04:27;;;;;;;11.38;9.40;;;;;;;9.10;100.00;93682.13;2091898;28;20066;-83
2022/06/12 04:05:33;;;;;;;13.00;11.30;;;;;;;9.09;100.00;93683.28;2090567;28;20083;-83
2022/06/12 04:06:35;;;;;;;11.75;9.43;;;;;;;9.06;100.00;93674.13;2091302;28;20461;-83
2022/06/12 04:07:43;;;;;;;12.55;9.30;;;;;;;9.11;100.00;93675.63;2090438;28;20069;-84
2022/06/12 04:08:53;;;;;;;12.15;9.38;;;;;;;9.12;100.00;93677.13;2090470;28;20017;-83
2022/06/12 04:09:59;;;;;;;9.25;8.00;;;;;;;9.15;100.00;93676.38;2099195;28;20569;-83
2022/06/12 04:11:01;;;;;;;7.85;6.97;;;;;;;9.15;100.00;93673.69;2098349;28;20087;-82
2022/06/12 04:12:08;;;;;;;8.20;7.00;;;;;;;9.18;100.00;93672.91;2089936;28;20111;-83
2022/06/12 04:13:13;;;;;;;8.85;7.05;;;;;;;9.20;100.00;93672.53;2091053;28;20061;-84
2022/06/12 04:14:17;;;;;;;10.85;6.65;;;;;;;9.14;100.00;93669.53;2099462;28;20028;-83
2022/06/12 04:15:24;;;;;;;8.18;6.40;;;;;;;9.19;100.00;93676.34;2115270;27;20027;-83
2022/06/12 04:16:38;;;;;;;6.50;5.75;;;;;;;9.22;100.00;93665.66;2098628;28;20052;-83
2022/06/12 04:17:41;;;;;;;6.80;6.18;;;;;;;9.25;100.00;93674.75;2110332;27;20093;-83
2022/06/12 04:18:42;;;;;;;6.70;5.95;;;;;;;9.24;100.00;93667.91;2106319;28;20032;-84
2022/06/12 04:21:41;;;;;;;8.15;5.00;;;;;;;9.45;100.00;93673.09;2103101;28;20110;-84
2022/06/12 04:23:03;;;;;;;6.30;5.07;;;;;;;9.52;100.00;93674.91;2090539;28;20028;-84
2022/06/12 04:24:26;;;;;;;8.30;5.40;;;;;;;9.49;100.00;93673.81;2095491;28;20138;-83
2022/06/12 04:26:02;;;;;;;5.60;5.10;;;;;;;9.46;100.00;93665.84;2095752;28;20016;-83
2022/06/12 04:27:16;;;;;;;5.57;5.00;;;;;;;9.51;100.00;93671.50;2110272;28;20118;-83
2022/06/12 04:28:36;;;;;;;5.75;4.65;;;;;;;9.51;100.00;93668.06;2101445;28;20035;-82
2022/06/12 04:29:39;;;;;;;;;;;;;;;9.50;100.00;93674.56;2095296;28;20021;-84
2022/06/12 04:30:40;;;;;;;5.70;4.70;;;;;;;9.52;100.00;93670.34;2089953;28;19997;-82
2022/06/12 04:31:44;;;;;;;5.80;5.07;;;;;;;9.55;100.00;93674.13;2098007;28;20409;-83
2022/06/12 04:32:48;;;;;;;6.85;5.10;;;;;;;9.58;100.00;93673.34;2098430;28;20038;-82
2022/06/12 04:34:16;;;;;;;6.13;5.53;;;;;;;9.63;100.00;93672.94;2098280;28;20473;-84
2022/06/12 04:35:17;;;;;;;6.03;5.28;;;;;;;9.67;100.00;93678.25;2105585;28;20045;-83
2022/06/12 04:36:18;;;;;;;5.63;5.03;;;;;;;9.73;100.00;93679.31;2097104;28;20561;-83
2022/06/12 04:37:25;;;;;;;9.25;5.28;;;;;;;9.70;100.00;93683.56;2101860;28;20024;-84
2022/06/12 04:38:29;;;;;;;6.55;5.53;;;;;;;9.72;100.00;93669.78;2106128;28;20092;-84
2022/06/12 04:39:33;;;;;;;6.93;5.07;;;;;;;9.72;100.00;93672.47;2090405;28;20106;-84
2022/06/12 04:40:34;;;;;;;6.07;5.18;;;;;;;9.76;100.00;93673.94;2106852;27;20038;-83
2022/06/12 04:41:44;;;;;;;8.20;5.43;;;;;;;9.78;100.00;93666.28;2114568;28;20015;-82
2022/06/12 04:42:45;;;;;;;6.80;5.45;;;;;;;9.83;100.00;93667.75;2099092;28;20025;-84
2022/06/12 04:43:46;;;;;;;6.15;4.55;;;;;;;9.87;100.00;93671.16;2097786;28;20079;-84
2022/06/12 04:44:49;;;;;;;6.40;5.80;;;;;;;9.92;100.00;93675.31;2097634;28;20031;-82
2022/06/12 04:45:53;;;;;;;8.77;6.18;;;;;;;9.88;100.00;93672.69;2098160;28;20028;-85
2022/06/12 04:46:58;;;;;;;6.20;5.40;;;;;;;9.92;100.00;93677.97;2106604;27;20111;-83
2022/06/12 04:48:12;;;;;;;8.10;5.63;;;;;;;9.96;100.00;93678.69;2122979;27;20084;-84
2022/06/12 04:49:18;;;;;;;6.15;5.55;;;;;;;9.99;100.00;93673.31;2113447;28;20069;-83
2022/06/12 04:50:20;;;;;;;7.72;5.15;;;;;;;10.04;100.00;93675.56;2099307;28;20056;-81
2022/06/12 04:51:21;;;;;;;7.45;5.45;;;;;;;10.05;100.00;93673.66;2106336;28;20059;-85
2022/06/12 04:52:25;;;;;;;6.28;5.40;;;;;;;10.08;100.00;93670.94;2106199;28;20016;-84
2022/06/12 04:53:26;;;;;;;6.45;5.28;;;;;;;10.14;100.00;93678.50;2098359;28;20509;-83
2022/06/12 04:54:29;;;;;;;7.50;5.60;;;;;;;10.18;100.00;93673.88;2114544;28;20027;-82
2022/06/12 04:55:32;;;;;;;6.75;5.60;;;;;;;10.20;100.00;93669.66;2114316;27;20053;-83
2022/06/12 04:56:36;;;;;;;6.65;5.07;;;;;;;10.25;100.00;93671.94;2114414;28;20016;-84
2022/06/12 04:57:37;;;;;;;5.43;4.93;;;;;;;10.30;100.00;93670.72;2107052;28;20047;-83
2022/06/12 04:58:39;;;;;;;5.47;4.85;;;;;;;10.35;100.00;93670.28;2105960;28;20465;-82
2022/06/12 04:59:41;;;;;;;6.75;5.00;;;;;;;10.38;100.00;93671.41;2105997;28;20052;-82
2022/06/12 05:00:42;;;;;;;6.20;5.18;;;;;;;10.39;100.00;93673.66;2106063;28;20055;-84
2022/06/12 05:01:45;;;;;;;6.03;5.30;;;;;;;10.37;100.00;93670.66;2097906;28;20195;-84
2022/06/12 05:02:46;;;;;;;6.18;5.18;;;;;;;10.42;100.00;93666.78;2098194;28;20027;-85
2022/06/12 05:03:47;;;;;;;6.90;5.57;;;;;;;10.49;100.00;93669.34;2106087;28;20035;-83
2022/06/12 05:04:48;;;;;;;7.30;5.97;;;;;;;10.53;100.00;93672.75;2105743;28;20050;-84
2022/06/12 05:05:49;;;;;;;8.00;5.35;;;;;;;10.56;100.00;93671.94;2105842;28;20051;-84
2022/06/12 05:06:50;;;;;;;6.68;5.38;;;;;;;10.62;100.00;93674.91;2105917;28;20062;-83
2022/06/12 05:07:51;;;;;;;6.28;5.30;;;;;;;10.69;100.00;93672.16;2097678;28;20062;-84
2022/06/12 05:08:53;;;;;;;5.85;5.25;;;;;;;10.71;100.00;93677.84;2097689;28;20081;-83
2022/06/12 05:09:54;;;;;;;5.63;4.97;;;;;;;10.78;100.00;93677.78;2097658;28;20017;-84
2022/06/12 05:10:55;;;;;;;6.65;5.15;;;;;;;10.84;100.00;93673.47;2106632;27;20032;-82
2022/06/12 05:11:56;;;;;;;7.03;5.40;;;;;;;10.88;100.00;93676.09;2114222;28;20023;-82
2022/06/12 05:12:57;;;;;;;10.18;5.00;;;;;;;10.92;100.00;93674.13;2097270;28;20050;-83
2022/06/12 05:13:58;;;;;;;6.40;5.38;;;;;;;10.96;100.00;93672.94;2105581;28;20032;-82
2022/06/12 05:14:59;;;;;;;8.98;5.38;;;;;;;11.01;100.00;93677.81;2103000;28;20032;-85
2022/06/12 05:16:01;;;;;;;6.63;5.50;;;;;;;11.04;100.00;93669.00;2105610;28;20055;-83
2022/06/12 05:17:09;;;;;;;5.95;5.28;;;;;;;11.09;100.00;93673.13;2099020;28;20028;-84
2022/06/12 05:18:12;;;;;;;7.93;5.15;;;;;;;11.14;100.00;93674.59;2094633;28;20024;-85
2022/06/12 05:19:17;;;;;;;6.15;4.72;;;;;;;11.18;100.00;93672.63;2102081;28;20020;-84
2022/06/12 05:20:22;;;;;;;7.18;5.13;;;;;;;11.22;100.00;93668.72;2102828;28;20027;-83
2022/06/12 05:21:25;;;;;;;6.53;5.15;;;;;;;11.25;100.00;93667.16;2107215;28;20058;-84
2022/06/12 05:22:26;;;;;;;5.45;5.00;;;;;;;11.29;100.00;93673.22;2096010;28;20028;-83
2022/06/12 05:23:28;;;;;;;6.93;4.95;;;;;;;11.34;100.00;93670.09;2099730;28;20032;-84
2022/06/12 05:24:31;;;;;;;6.63;5.18;;;;;;;11.38;100.00;93670.03;2102958;27;20024;-83
2022/06/12 05:25:33;;;;;;;8.88;5.40;;;;;;;11.43;100.00;93670.31;2098178;28;20077;-84
2022/06/12 05:26:34;;;;;;;6.50;4.95;;;;;;;11.48;100.00;93671.78;2103191;28;20063;-83
2022/06/12 05:27:35;;;;;;;7.40;5.22;;;;;;;11.53;100.00;93673.97;2095862;28;20048;-83
2022/06/12 05:28:36;;;;;;;6.25;5.35;;;;;;;11.59;100.00;93675.03;2100476;28;20052;-83
2022/06/12 05:29:39;;;;;;;6.95;4.95;;;;;;;11.67;100.00;93675.66;2106233;27;20560;-83
2022/06/12 05:30:42;;;;;;;6.85;5.10;;;;;;;11.75;100.00;93667.09;2105149;28;20106;-83
2022/06/12 05:31:44;;;;;;;7.07;5.53;;;;;;;11.83;100.00;93667.78;2096446;28;20028;-84